createdAt,value
2018-04-15T00:02:01.204Z,22.80
2018-04-15T00:04:29.379Z,24.37
2018-04-15T00:06:57.342Z,23.60
2018-04-15T00:09:25.820Z,23.83
2018-04-15T00:11:53.891Z,22.77
2018-04-15T00:14:21.758Z,23.67
2018-04-15T00:16:50.035Z,22.70
2018-04-15T00:19:18.312Z,23.13
2018-04-15T00:21:46.793Z,23.30
2018-04-15T00:24:14.879Z,23.47
2018-04-15T00:26:44.032Z,25.00
2018-04-15T00:29:11.993Z,24.17
2018-04-15T00:31:39.997Z,23.17
2018-04-15T00:34:08.486Z,23.13
2018-04-15T00:36:36.725Z,24.43
2018-04-15T00:39:04.826Z,22.87
2018-04-15T00:41:32.997Z,23.30
2018-04-15T00:44:01.071Z,24.67
2018-04-15T00:46:29.240Z,23.43
2018-04-15T00:48:57.620Z,23.00
2018-04-15T00:51:25.483Z,22.83
2018-04-15T00:54:05.435Z,22.17
2018-04-15T00:56:33.471Z,21.10
2018-04-15T00:59:01.583Z,21.37
2018-04-15T01:01:29.642Z,21.33
2018-04-15T01:03:57.616Z,21.80
2018-04-15T01:06:27.225Z,20.37
2018-04-15T01:08:55.702Z,21.03
2018-04-15T01:11:24.144Z,21.80
2018-04-15T01:13:52.361Z,21.10
2018-04-15T01:16:20.612Z,22.00
2018-04-15T01:18:49.123Z,21.77
2018-04-15T01:21:17.283Z,21.77
2018-04-15T01:23:45.570Z,22.77
2018-04-15T01:26:13.633Z,22.47
2018-04-15T01:28:41.508Z,22.03
2018-04-15T01:31:09.673Z,23.03
2018-04-15T01:33:38.111Z,23.20
2018-04-15T01:36:07.251Z,22.50
2018-04-15T01:38:35.521Z,21.97
2018-04-15T01:41:03.701Z,21.40
2018-04-15T01:43:32.082Z,21.63
2018-04-15T01:46:01.378Z,22.40
2018-04-15T01:48:29.245Z,21.93
2018-04-15T01:50:57.392Z,24.00
2018-04-15T01:53:25.791Z,22.30
2018-04-15T01:55:53.713Z,22.87
2018-04-15T01:58:21.827Z,22.10
2018-04-15T02:00:49.705Z,22.20
2018-04-15T02:03:17.868Z,23.00
2018-04-15T02:05:45.916Z,22.67
2018-04-15T02:08:14.321Z,21.47
2018-04-15T02:10:42.597Z,23.20
2018-04-15T02:13:10.567Z,22.70
2018-04-15T02:15:38.821Z,23.10
2018-04-15T02:18:07.207Z,24.17
2018-04-15T02:20:35.178Z,25.77
2018-04-15T02:23:03.120Z,24.50
2018-04-15T02:25:31.544Z,23.67
2018-04-15T02:27:59.877Z,23.00
2018-04-15T02:30:29.227Z,23.50
2018-04-15T02:32:57.386Z,25.10
2018-04-15T02:35:25.628Z,24.40
2018-04-15T02:37:54.554Z,38.47
2018-04-15T02:40:22.814Z,64.50
2018-04-15T02:42:51.006Z,62.33
2018-04-15T02:45:19.179Z,43.53
2018-04-15T02:47:47.413Z,33.37
2018-04-15T02:50:15.938Z,27.67
2018-04-15T02:52:44.407Z,28.50
2018-04-15T02:55:12.278Z,26.87
2018-04-15T02:57:40.555Z,26.20
2018-04-15T03:00:09.027Z,27.20
2018-04-15T03:02:37.107Z,24.40
2018-04-15T03:05:05.077Z,25.63
2018-04-15T03:07:32.945Z,24.47
2018-04-15T03:10:01.625Z,24.83
2018-04-15T03:12:29.977Z,26.03
2018-04-15T03:14:57.874Z,26.33
2018-04-15T03:17:26.352Z,24.40
2018-04-15T03:19:54.279Z,25.87
2018-04-15T03:22:22.490Z,25.27
2018-04-15T03:24:50.670Z,28.33
2018-04-15T03:27:19.147Z,28.57
2018-04-15T03:29:47.211Z,27.63
2018-04-15T03:32:15.597Z,29.40
2018-04-15T03:34:43.667Z,26.10
2018-04-15T03:37:11.536Z,26.77
2018-04-15T03:39:39.706Z,25.70
2018-04-15T03:42:07.750Z,26.10
2018-04-15T03:44:35.930Z,25.60
2018-04-15T03:47:03.811Z,25.30
2018-04-15T03:49:32.167Z,25.67
2018-04-15T03:52:00.269Z,24.80
2018-04-15T03:54:28.754Z,25.20
2018-04-15T03:56:56.614Z,25.97
2018-04-15T03:59:24.767Z,26.17
2018-04-15T04:01:53.052Z,26.27
2018-04-15T04:04:21.027Z,25.93
2018-04-15T04:06:49.412Z,25.90
2018-04-15T04:09:17.862Z,23.87
2018-04-15T04:11:46.061Z,23.50
2018-04-15T04:14:14.545Z,25.60
2018-04-15T04:16:42.683Z,24.93
2018-04-15T04:19:22.356Z,25.33
2018-04-15T04:22:01.999Z,24.80
2018-04-15T04:24:41.749Z,25.60
2018-04-15T04:27:09.690Z,24.77
2018-04-15T04:29:37.895Z,26.40
2018-04-15T04:32:06.163Z,24.30
2018-04-15T04:34:34.334Z,25.43
2018-04-15T04:37:02.508Z,24.77
2018-04-15T04:39:30.894Z,26.70
2018-04-15T04:41:58.861Z,25.00
2018-04-15T04:44:26.714Z,26.10
2018-04-15T04:46:54.697Z,25.10
2018-04-15T04:49:23.181Z,25.63
2018-04-15T04:51:54.100Z,25.73
2018-04-15T04:54:22.904Z,25.83
2018-04-15T04:56:50.965Z,24.67
2018-04-15T04:59:19.130Z,26.40
2018-04-15T05:01:47.316Z,26.47
2018-04-15T05:04:15.352Z,26.37
2018-04-15T05:06:43.530Z,26.67
2018-04-15T05:09:11.630Z,26.40
2018-04-15T05:11:39.596Z,25.80
2018-04-15T05:14:07.773Z,26.10
2018-04-15T05:16:36.146Z,27.30
2018-04-15T05:19:04.291Z,25.97
2018-04-15T05:21:32.804Z,26.77
2018-04-15T05:24:01.187Z,26.40
2018-04-15T05:26:29.253Z,25.30
2018-04-15T05:28:57.327Z,25.70
2018-04-15T05:31:25.676Z,26.27
2018-04-15T05:33:53.876Z,25.37
2018-04-15T05:36:23.482Z,26.00
2018-04-15T05:38:51.525Z,25.63
2018-04-15T05:41:19.827Z,26.70
2018-04-15T05:43:47.998Z,27.27
2018-04-15T05:46:16.363Z,26.93
2018-04-15T05:48:44.860Z,27.57
2018-04-15T05:51:13.040Z,27.73
2018-04-15T05:53:41.211Z,28.60
2018-04-15T05:56:09.180Z,28.87
2018-04-15T05:58:37.342Z,30.33
2018-04-15T06:01:05.620Z,28.10
2018-04-15T06:03:33.495Z,27.37
2018-04-15T06:06:02.280Z,30.40
2018-04-15T06:08:30.351Z,29.07
2018-04-15T06:10:58.495Z,29.67
2018-04-15T06:13:27.008Z,32.17
2018-04-15T06:15:55.244Z,30.47
2018-04-15T06:18:23.657Z,30.30
2018-04-15T06:20:51.830Z,40.60
2018-04-15T06:23:19.797Z,35.90
2018-04-15T06:25:47.776Z,33.40
2018-04-15T06:28:15.636Z,34.10
2018-04-15T06:30:43.908Z,29.70
2018-04-15T06:33:11.880Z,30.00
2018-04-15T06:35:40.569Z,31.40
2018-04-15T06:38:08.637Z,28.60
2018-04-15T06:40:36.712Z,30.97
2018-04-15T06:43:04.568Z,29.47
2018-04-15T06:45:32.741Z,28.60
2018-04-15T06:48:00.921Z,30.40
2018-04-15T06:50:29.093Z,30.40
2018-04-15T06:52:57.051Z,29.20
2018-04-15T06:55:25.132Z,28.33
2018-04-15T06:57:56.309Z,26.87
2018-04-15T07:00:29.568Z,29.57
2018-04-15T07:02:59.201Z,28.10
2018-04-15T07:05:30.298Z,24.73
2018-04-15T07:07:59.000Z,25.10
2018-04-15T07:10:28.452Z,26.13
2018-04-15T07:13:00.019Z,26.47
2018-04-15T07:15:30.034Z,27.83
2018-04-15T07:17:59.051Z,27.43
2018-04-15T07:20:29.220Z,25.17
2018-04-15T07:22:59.492Z,25.30
2018-04-15T07:25:27.903Z,24.30
2018-04-15T07:27:56.776Z,26.63
2018-04-15T07:30:25.093Z,27.63
2018-04-15T07:32:53.127Z,25.20
2018-04-15T07:35:22.692Z,24.53
2018-04-15T07:37:50.644Z,23.30
2018-04-15T07:40:18.872Z,23.90
2018-04-15T07:42:46.846Z,23.43
2018-04-15T07:45:14.713Z,22.73
2018-04-15T07:47:42.576Z,21.37
2018-04-15T07:50:10.655Z,20.70
2018-04-15T07:52:38.516Z,19.33
2018-04-15T07:55:06.662Z,20.27
2018-04-15T07:57:34.961Z,20.67
2018-04-15T08:00:03.149Z,18.77
2018-04-15T08:02:31.103Z,20.97
2018-04-15T08:04:58.952Z,21.20
2018-04-15T08:07:27.325Z,19.90
2018-04-15T08:09:55.916Z,20.70
2018-04-15T08:12:24.106Z,19.60
2018-04-15T08:14:52.485Z,20.57
2018-04-15T08:17:20.657Z,19.20
2018-04-15T08:19:48.641Z,19.97
2018-04-15T08:22:16.867Z,20.20
2018-04-15T08:24:45.180Z,18.47
2018-04-15T08:27:13.147Z,19.47
2018-04-15T08:29:41.330Z,19.53
2018-04-15T08:32:09.802Z,19.87
2018-04-15T08:34:38.077Z,19.20
2018-04-15T08:37:06.047Z,18.57
2018-04-15T08:39:34.297Z,19.17
2018-04-15T08:42:03.382Z,20.03
2018-04-15T08:44:31.493Z,19.40
2018-04-15T08:46:59.661Z,19.43
2018-04-15T08:49:28.751Z,17.60
2018-04-15T08:51:57.737Z,18.50
2018-04-15T08:54:25.944Z,19.13
2018-04-15T08:56:54.606Z,18.90
2018-04-15T08:59:23.077Z,18.07
2018-04-15T09:01:51.461Z,17.40
2018-04-15T09:04:19.877Z,16.37
2018-04-15T09:06:48.038Z,20.97
2018-04-15T09:09:17.540Z,16.87
2018-04-15T09:11:46.774Z,14.77
2018-04-15T09:14:15.197Z,14.43
2018-04-15T09:16:43.905Z,15.17
2018-04-15T09:19:13.597Z,15.00
2018-04-15T09:21:41.797Z,14.77
2018-04-15T09:24:11.077Z,14.47
2018-04-15T09:26:40.085Z,14.40
2018-04-15T09:29:09.732Z,15.50
2018-04-15T09:31:38.452Z,17.57
2018-04-15T09:34:06.533Z,15.07
2018-04-15T09:36:35.076Z,16.00
2018-04-15T09:39:03.284Z,18.40
2018-04-15T09:41:31.780Z,16.87
2018-04-15T09:44:00.756Z,16.83
2018-04-15T09:46:29.374Z,15.57
2018-04-15T09:48:58.963Z,14.97
2018-04-15T09:51:28.563Z,14.77
2018-04-15T09:53:57.282Z,14.13
2018-04-15T09:56:25.604Z,14.30
2018-04-15T09:58:54.020Z,13.90
2018-04-15T10:01:23.316Z,13.27
2018-04-15T10:03:52.195Z,13.80
2018-04-15T10:06:22.212Z,13.10
2018-04-15T10:08:50.795Z,13.50
2018-04-15T10:11:20.091Z,12.87
2018-04-15T10:13:48.283Z,12.70
2018-04-15T10:16:17.355Z,13.60
2018-04-15T10:18:45.531Z,13.00
2018-04-15T10:21:14.003Z,13.40
2018-04-15T10:23:42.802Z,13.33
2018-04-15T10:26:11.283Z,12.57
2018-04-15T10:28:39.875Z,14.50
2018-04-15T10:31:08.140Z,13.67
2018-04-15T10:33:36.394Z,12.80
2018-04-15T10:36:04.876Z,12.80
2018-04-15T10:38:33.372Z,13.47
2018-04-15T10:41:01.614Z,12.13
2018-04-15T10:43:29.925Z,12.70
2018-04-15T10:45:59.186Z,13.20
2018-04-15T10:48:27.717Z,12.87
2018-04-15T10:50:57.061Z,12.17
2018-04-15T10:53:25.397Z,12.53
2018-04-15T10:55:54.397Z,11.50
2018-04-15T10:58:23.278Z,11.07
2018-04-15T11:00:52.558Z,13.67
2018-04-15T11:03:20.846Z,18.57
2018-04-15T11:05:49.017Z,12.40
2018-04-15T11:08:17.494Z,11.93
2018-04-15T11:10:47.077Z,13.13
2018-04-15T11:13:16.422Z,14.10
2018-04-15T11:15:45.621Z,13.03
2018-04-15T11:18:15.902Z,11.87
2018-04-15T11:20:44.607Z,12.13
2018-04-15T11:23:13.005Z,11.60
2018-04-15T11:25:42.302Z,11.33
2018-04-15T11:28:11.077Z,12.10
2018-04-15T11:30:39.741Z,11.90
2018-04-15T11:33:07.845Z,11.30
2018-04-15T11:35:36.741Z,11.27
2018-04-15T11:38:05.943Z,12.53
2018-04-15T11:40:35.732Z,12.00
2018-04-15T11:43:04.565Z,11.60
2018-04-15T11:45:33.372Z,11.63
2018-04-15T11:48:01.564Z,12.67
2018-04-15T11:50:29.565Z,12.00
2018-04-15T11:52:58.460Z,12.47
2018-04-15T11:55:27.452Z,11.90
2018-04-15T11:57:56.636Z,12.37
2018-04-15T12:00:24.693Z,11.37
2018-04-15T12:02:53.285Z,12.83
2018-04-15T12:05:21.484Z,12.00
2018-04-15T12:07:51.173Z,12.00
2018-04-15T12:10:20.684Z,12.70
2018-04-15T12:12:49.772Z,11.33
2018-04-15T12:15:18.124Z,11.40
2018-04-15T12:17:46.845Z,11.80
2018-04-15T12:20:15.021Z,12.00
2018-04-15T12:22:44.205Z,12.27
2018-04-15T12:25:12.605Z,12.00
2018-04-15T12:27:41.997Z,12.43
2018-04-15T12:30:11.088Z,11.23
2018-04-15T12:32:39.342Z,12.40
2018-04-15T12:35:08.062Z,11.50
2018-04-15T12:37:37.326Z,12.10
2018-04-15T12:40:05.487Z,10.90
2018-04-15T12:42:34.502Z,11.47
2018-04-15T12:45:03.007Z,10.20
2018-04-15T12:47:32.287Z,11.43
2018-04-15T12:50:00.784Z,11.10
2018-04-15T12:52:29.262Z,11.47
2018-04-15T12:54:57.446Z,11.33
2018-04-15T12:57:26.327Z,16.33
2018-04-15T12:59:56.246Z,13.57
2018-04-15T13:02:26.055Z,11.87
2018-04-15T13:04:54.837Z,13.17
2018-04-15T13:07:24.469Z,11.80
2018-04-15T13:09:53.437Z,11.20
2018-04-15T13:12:23.039Z,11.10
2018-04-15T13:14:51.226Z,12.10
2018-04-15T13:17:20.325Z,12.13
2018-04-15T13:19:49.605Z,12.13
2018-04-15T13:22:18.007Z,11.70
2018-04-15T13:24:47.494Z,12.57
2018-04-15T13:27:16.093Z,12.37
2018-04-15T13:29:45.546Z,13.33
2018-04-15T13:32:13.886Z,12.50
2018-04-15T13:34:42.838Z,12.10
2018-04-15T13:37:11.414Z,12.90
2018-04-15T13:39:39.806Z,13.47
2018-04-15T13:42:08.405Z,12.10
2018-04-15T13:44:37.606Z,12.10
2018-04-15T13:47:06.679Z,12.23
2018-04-15T13:49:34.965Z,12.60
2018-04-15T13:52:04.533Z,13.47
2018-04-15T13:54:33.205Z,12.90
2018-04-15T13:57:01.734Z,13.33
2018-04-15T13:59:29.876Z,12.67
2018-04-15T14:01:58.496Z,13.57
2018-04-15T14:04:26.774Z,13.73
2018-04-15T14:06:55.734Z,12.60
2018-04-15T14:09:23.942Z,13.70
2018-04-15T14:11:53.439Z,11.80
2018-04-15T14:14:22.742Z,12.70
2018-04-15T14:16:51.845Z,12.10
2018-04-15T14:19:20.975Z,11.87
2018-04-15T14:21:50.445Z,12.57
2018-04-15T14:24:19.862Z,12.53
2018-04-15T14:26:48.318Z,12.70
2018-04-15T14:29:16.738Z,12.90
2018-04-15T14:31:45.917Z,12.33
2018-04-15T14:34:16.118Z,12.17
2018-04-15T14:36:44.406Z,12.63
2018-04-15T14:39:13.926Z,12.37
2018-04-15T14:41:42.982Z,13.57
2018-04-15T14:44:11.766Z,14.37
2018-04-15T14:46:39.901Z,14.17
2018-04-15T14:49:09.502Z,14.43
2018-04-15T14:51:38.335Z,14.77
2018-04-15T14:54:06.526Z,14.40
2018-04-15T14:56:35.741Z,14.70
2018-04-15T14:59:04.931Z,16.87
2018-04-15T15:01:34.210Z,13.73
2018-04-15T15:04:04.142Z,14.60
2018-04-15T15:06:33.694Z,14.23
2018-04-15T15:09:02.416Z,13.00
2018-04-15T15:11:31.006Z,14.37
2018-04-15T15:14:00.494Z,12.80
2018-04-15T15:16:29.022Z,12.90
2018-04-15T15:18:57.566Z,14.30
2018-04-15T15:21:26.013Z,12.90
2018-04-15T15:23:54.502Z,13.50
2018-04-15T15:26:22.813Z,13.20
2018-04-15T15:28:50.845Z,13.47
2018-04-15T15:31:19.329Z,13.03
2018-04-15T15:33:47.824Z,13.90
2018-04-15T15:36:16.221Z,14.40
2018-04-15T15:38:45.518Z,14.30
2018-04-15T15:41:13.774Z,13.60
2018-04-15T15:43:41.862Z,12.90
2018-04-15T15:46:10.974Z,13.70
2018-04-15T15:48:40.007Z,14.83
2018-04-15T15:51:08.526Z,13.60
2018-04-15T15:53:37.086Z,14.10
2018-04-15T15:56:05.598Z,14.47
2018-04-15T15:58:34.381Z,13.43
2018-04-15T16:01:04.717Z,20.40
2018-04-15T16:03:34.222Z,15.97
2018-04-15T16:06:03.329Z,14.63
2018-04-15T16:08:32.821Z,16.10
2018-04-15T16:11:02.133Z,14.17
2018-04-15T16:13:31.376Z,14.37
2018-04-15T16:15:59.585Z,14.30
2018-04-15T16:18:27.650Z,16.20
2018-04-15T16:20:55.799Z,12.87
2018-04-15T16:23:24.200Z,14.43
2018-04-15T16:25:52.371Z,14.37
2018-04-15T16:28:20.441Z,14.70
2018-04-15T16:30:48.816Z,13.10
2018-04-15T16:33:17.098Z,13.20
2018-04-15T16:35:45.140Z,14.87
2018-04-15T16:38:13.543Z,15.00
2018-04-15T16:40:41.934Z,15.27
2018-04-15T16:43:09.997Z,14.70
2018-04-15T16:45:38.274Z,17.47
2018-04-15T16:48:06.447Z,15.57
2018-04-15T16:50:34.489Z,15.67
2018-04-15T16:53:02.795Z,15.60
2018-04-15T16:55:31.260Z,15.23
2018-04-15T16:57:59.535Z,16.47
2018-04-15T17:00:28.092Z,16.03
2018-04-15T17:02:56.875Z,15.87
2018-04-15T17:05:24.960Z,14.50
2018-04-15T17:07:52.857Z,15.87
2018-04-15T17:10:21.035Z,14.20
2018-04-15T17:12:49.301Z,18.00
2018-04-15T17:15:18.402Z,16.97
2018-04-15T17:17:47.001Z,15.63
2018-04-15T17:20:15.360Z,15.57
2018-04-15T17:22:43.925Z,15.20
2018-04-15T17:25:12.334Z,15.10
2018-04-15T17:27:41.628Z,13.03
2018-04-15T17:30:10.003Z,15.80
2018-04-15T17:32:38.375Z,14.30
2018-04-15T17:35:06.857Z,15.43
2018-04-15T17:37:35.210Z,15.87
2018-04-15T17:40:03.735Z,18.27
2018-04-15T17:42:32.711Z,18.37
2018-04-15T17:45:00.780Z,16.20
2018-04-15T17:47:29.068Z,16.17
2018-04-15T17:49:58.365Z,16.80
2018-04-15T17:52:26.843Z,16.63
2018-04-15T17:54:54.705Z,16.03
2018-04-15T17:57:22.882Z,16.17
2018-04-15T17:59:51.053Z,16.60
2018-04-15T18:02:18.936Z,15.60
2018-04-15T18:04:47.400Z,16.60
2018-04-15T18:07:15.671Z,15.23
2018-04-15T18:09:43.926Z,15.53
2018-04-15T18:12:12.128Z,16.97
2018-04-15T18:14:40.298Z,14.30
2018-04-15T18:17:08.448Z,15.70
2018-04-15T18:19:36.745Z,16.13
2018-04-15T18:22:06.147Z,15.20
2018-04-15T18:24:34.401Z,15.27
2018-04-15T18:27:02.388Z,15.23
2018-04-15T18:29:30.664Z,14.87
2018-04-15T18:31:59.254Z,15.97
2018-04-15T18:34:27.327Z,16.83
2018-04-15T18:36:55.419Z,17.77
2018-04-15T18:39:23.672Z,19.70
2018-04-15T18:41:51.955Z,18.00
2018-04-15T18:44:20.941Z,16.50
2018-04-15T18:46:48.802Z,16.30
2018-04-15T18:49:17.067Z,16.13
2018-04-15T18:51:45.528Z,17.63
2018-04-15T18:54:13.889Z,17.33
2018-04-15T18:56:42.109Z,18.70
2018-04-15T18:59:09.980Z,18.40
2018-04-15T19:01:38.255Z,18.37
2018-04-15T19:04:06.231Z,16.70
2018-04-15T19:06:34.190Z,19.07
2018-04-15T19:09:02.686Z,16.00
2018-04-15T19:11:30.851Z,16.63
2018-04-15T19:13:59.329Z,16.00
2018-04-15T19:16:27.773Z,15.43
2018-04-15T19:18:55.856Z,14.60
2018-04-15T19:21:23.742Z,15.90
2018-04-15T19:23:52.103Z,15.30
2018-04-15T19:26:20.274Z,16.70
2018-04-15T19:28:48.652Z,15.43
2018-04-15T19:31:16.766Z,16.30
2018-04-15T19:33:46.017Z,16.10
2018-04-15T19:36:14.534Z,15.70
2018-04-15T19:38:44.302Z,16.87
2018-04-15T19:41:12.544Z,16.17
2018-04-15T19:43:40.971Z,17.50
2018-04-15T19:46:09.369Z,15.30
2018-04-15T19:48:37.618Z,15.93
2018-04-15T19:51:05.812Z,17.07
2018-04-15T19:53:33.990Z,15.73
2018-04-15T19:56:02.059Z,17.17
2018-04-15T19:58:30.574Z,16.87
2018-04-15T20:00:59.749Z,16.53
2018-04-15T20:03:29.046Z,19.07
2018-04-15T20:05:57.119Z,16.83
2018-04-15T20:08:25.303Z,17.20
2018-04-15T20:10:53.717Z,19.13
2018-04-15T20:13:22.240Z,18.37
2018-04-15T20:15:50.313Z,18.47
2018-04-15T20:18:18.690Z,18.67
2018-04-15T20:20:47.245Z,18.67
2018-04-15T20:23:15.350Z,18.90
2018-04-15T20:25:43.312Z,20.57
2018-04-15T20:28:11.387Z,20.00
2018-04-15T20:30:39.357Z,18.53
2018-04-15T20:33:07.535Z,18.37
2018-04-15T20:35:35.596Z,19.97
2018-04-15T20:38:03.771Z,18.90
2018-04-15T20:40:31.942Z,65.47
2018-04-15T20:43:00.217Z,20.93
2018-04-15T20:45:28.599Z,20.20
2018-04-15T20:47:56.896Z,18.20
2018-04-15T20:50:25.727Z,18.90
2018-04-15T20:52:53.629Z,18.77
2018-04-15T20:55:21.719Z,20.63
2018-04-15T20:57:50.906Z,18.40
2018-04-15T21:00:18.971Z,18.87
2018-04-15T21:02:47.112Z,19.10
2018-04-15T21:05:15.213Z,22.33
2018-04-15T21:07:43.291Z,18.87
2018-04-15T21:10:11.459Z,20.73
2018-04-15T21:12:39.398Z,19.00
2018-04-15T21:15:07.702Z,18.60
2018-04-15T21:17:35.777Z,20.13
2018-04-15T21:20:04.035Z,17.60
2018-04-15T21:22:32.330Z,18.83
2018-04-15T21:25:00.602Z,17.93
2018-04-15T21:27:28.972Z,18.83
2018-04-15T21:29:56.947Z,19.83
2018-04-15T21:32:25.295Z,18.90
2018-04-15T21:34:53.194Z,17.93
2018-04-15T21:37:21.259Z,19.27
2018-04-15T21:39:49.440Z,19.17
2018-04-15T21:42:17.403Z,20.90
2018-04-15T21:44:45.488Z,23.90
2018-04-15T21:47:13.859Z,24.43
2018-04-15T21:49:42.232Z,27.10
2018-04-15T21:52:10.302Z,23.80
2018-04-15T21:54:38.747Z,25.27
2018-04-15T21:57:06.852Z,21.63
2018-04-15T21:59:35.234Z,21.30
2018-04-15T22:02:03.587Z,20.40
2018-04-15T22:04:31.890Z,19.00
2018-04-15T22:07:00.032Z,18.93
2018-04-15T22:09:28.240Z,19.77
2018-04-15T22:12:08.297Z,20.83
2018-04-15T22:14:36.565Z,20.13
2018-04-15T22:17:05.552Z,19.53
2018-04-15T22:19:33.969Z,19.87
2018-04-15T22:22:02.208Z,19.87
2018-04-15T22:24:30.286Z,20.80
2018-04-15T22:26:58.523Z,20.00
2018-04-15T22:29:26.419Z,19.40
2018-04-15T22:31:55.311Z,19.80
2018-04-15T22:34:23.487Z,20.10
2018-04-15T22:36:51.626Z,21.37
2018-04-15T22:39:19.733Z,20.10
2018-04-15T22:41:47.796Z,21.30
2018-04-15T22:44:16.179Z,20.77
2018-04-15T22:46:44.758Z,20.67
2018-04-15T22:49:18.510Z,21.03
2018-04-15T22:51:46.733Z,19.60
2018-04-15T22:54:14.602Z,20.70
2018-04-15T22:56:43.901Z,22.73
2018-04-15T22:59:11.977Z,20.20
2018-04-15T23:01:40.047Z,21.27
2018-04-15T23:04:08.387Z,21.50
2018-04-15T23:06:36.902Z,21.10
2018-04-15T23:09:05.796Z,19.67
2018-04-15T23:11:33.967Z,20.73
2018-04-15T23:14:02.244Z,18.50
2018-04-15T23:16:30.317Z,19.83
2018-04-15T23:18:58.597Z,18.47
2018-04-15T23:21:26.838Z,18.60
2018-04-15T23:23:55.019Z,18.47
2018-04-15T23:26:24.227Z,18.80
2018-04-15T23:28:52.413Z,18.60
2018-04-15T23:31:20.581Z,17.33
2018-04-15T23:33:48.753Z,17.90
2018-04-15T23:36:17.050Z,18.73
2018-04-15T23:38:45.717Z,18.97
2018-04-15T23:41:13.789Z,18.27
2018-04-15T23:43:42.063Z,17.33
2018-04-15T23:46:10.104Z,18.20
2018-04-15T23:48:38.307Z,18.30
2018-04-15T23:51:06.379Z,19.30
2018-04-15T23:53:34.250Z,19.20
2018-04-15T23:56:02.521Z,17.83
2018-04-15T23:58:30.673Z,19.77
